createdAt,value
2022-11-20T00:01:38.920Z,54.62
2022-11-20T00:04:07.487Z,54.77
2022-11-20T00:06:35.699Z,54.09
2022-11-20T00:09:06.737Z,54.46
2022-11-20T00:11:34.786Z,54.06
2022-11-20T00:14:04.478Z,54.17
2022-11-20T00:16:34.760Z,54.16
2022-11-20T00:19:03.517Z,54.40
2022-11-20T00:21:32.031Z,54.38
2022-11-20T00:24:01.183Z,54.01
2022-11-20T00:26:29.930Z,54.35
2022-11-20T00:29:01.769Z,54.06
2022-11-20T00:31:31.670Z,54.02
2022-11-20T00:34:00.119Z,54.02
2022-11-20T00:36:32.957Z,54.13
2022-11-20T00:39:02.459Z,54.13
2022-11-20T00:41:31.155Z,53.77
2022-11-20T00:44:00.647Z,53.47
2022-11-20T00:46:29.364Z,53.76
2022-11-20T00:48:58.056Z,53.57
2022-11-20T00:51:27.693Z,53.23
2022-11-20T00:53:58.139Z,53.09
2022-11-20T00:56:26.377Z,53.43
2022-11-20T00:58:55.587Z,53.13
2022-11-20T01:01:26.315Z,53.07
2022-11-20T01:03:57.067Z,53.26
2022-11-20T01:06:27.826Z,52.80
2022-11-20T01:09:02.077Z,52.94
2022-11-20T01:11:33.136Z,52.67
2022-11-20T01:14:03.656Z,52.65
2022-11-20T01:16:37.559Z,52.04
2022-11-20T01:19:08.487Z,52.34
2022-11-20T01:21:39.208Z,52.45
2022-11-20T01:24:11.946Z,52.25
2022-11-20T01:26:42.335Z,52.32
2022-11-20T01:29:16.238Z,52.27
2022-11-20T01:31:45.066Z,52.00
2022-11-20T01:34:16.670Z,52.02
2022-11-20T01:36:45.006Z,51.95
2022-11-20T01:39:20.059Z,52.22
2022-11-20T01:42:10.194Z,52.07
2022-11-20T01:44:57.354Z,51.94
2022-11-20T01:47:38.678Z,51.79
2022-11-20T01:50:24.457Z,52.05
2022-11-20T01:52:58.260Z,51.98
2022-11-20T01:55:31.342Z,51.87
2022-11-20T01:58:00.910Z,51.87
2022-11-20T02:00:29.340Z,51.89
2022-11-20T02:03:05.266Z,51.71
2022-11-20T02:06:00.711Z,51.68
2022-11-20T02:08:29.911Z,51.63
2022-11-20T02:10:59.435Z,51.58
2022-11-20T02:13:45.887Z,51.86
2022-11-20T02:16:18.401Z,51.94
2022-11-20T02:18:48.392Z,51.75
2022-11-20T02:21:20.530Z,51.53
2022-11-20T02:23:54.761Z,51.70
2022-11-20T02:26:25.245Z,51.49
2022-11-20T02:28:53.370Z,51.63
2022-11-20T02:31:21.831Z,51.41
2022-11-20T02:33:58.371Z,51.74
2022-11-20T02:36:28.729Z,51.42
2022-11-20T02:38:56.883Z,51.53
2022-11-20T02:41:36.120Z,51.20
2022-11-20T02:44:05.974Z,51.24
2022-11-20T02:46:35.307Z,51.64
2022-11-20T02:49:05.097Z,51.42
2022-11-20T02:51:34.016Z,51.41
2022-11-20T02:54:02.951Z,51.53
2022-11-20T02:56:31.971Z,51.48
2022-11-20T02:59:00.140Z,51.24
2022-11-20T03:01:28.657Z,51.21
2022-11-20T03:03:57.422Z,51.06
2022-11-20T03:06:25.911Z,51.04
2022-11-20T03:08:54.040Z,51.24
2022-11-20T03:11:23.800Z,51.11
2022-11-20T03:13:51.922Z,51.13
2022-11-20T03:16:23.410Z,51.00
2022-11-20T03:18:55.150Z,51.04
2022-11-20T03:21:23.630Z,51.16
2022-11-20T03:23:51.712Z,50.98
2022-11-20T03:26:23.141Z,50.61
2022-11-20T03:28:57.140Z,50.71
2022-11-20T03:31:31.930Z,50.96
2022-11-20T03:34:01.002Z,50.84
2022-11-20T03:36:30.090Z,50.81
2022-11-20T03:38:58.869Z,50.50
2022-11-20T03:41:30.483Z,50.20
2022-11-20T03:44:00.764Z,50.06
2022-11-20T03:46:30.191Z,50.35
2022-11-20T03:48:58.601Z,50.46
2022-11-20T03:51:29.686Z,50.24
2022-11-20T03:53:59.795Z,50.52
2022-11-20T03:56:30.981Z,50.48
2022-11-20T03:58:59.771Z,50.36
2022-11-20T04:01:31.380Z,50.18
2022-11-20T04:04:00.157Z,49.82
2022-11-20T04:06:36.825Z,50.20
2022-11-20T04:09:06.635Z,49.67
2022-11-20T04:11:37.740Z,50.13
2022-11-20T04:14:07.139Z,49.67
2022-11-20T04:16:37.765Z,49.58
2022-11-20T04:19:12.830Z,49.87
2022-11-20T04:21:41.619Z,49.75
2022-11-20T04:24:11.819Z,49.75
2022-11-20T04:26:41.580Z,49.85
2022-11-20T04:29:12.709Z,49.53
2022-11-20T04:31:42.323Z,49.78
2022-11-20T04:34:15.109Z,49.83
2022-11-20T04:36:44.754Z,49.67
2022-11-20T04:39:15.770Z,49.87
2022-11-20T04:41:44.540Z,49.71
2022-11-20T04:44:12.720Z,49.60
2022-11-20T04:46:43.296Z,49.46
2022-11-20T04:49:12.365Z,50.02
2022-11-20T04:51:40.833Z,49.57
2022-11-20T04:54:09.910Z,49.47
2022-11-20T04:56:39.380Z,49.54
2022-11-20T04:59:07.543Z,49.77
2022-11-20T05:01:36.523Z,49.39
2022-11-20T05:04:05.554Z,49.54
2022-11-20T05:06:34.169Z,49.83
2022-11-20T05:09:03.630Z,49.84
2022-11-20T05:11:33.411Z,49.41
2022-11-20T05:14:01.579Z,49.14
2022-11-20T05:16:30.693Z,49.16
2022-11-20T05:18:58.929Z,49.20
2022-11-20T05:21:28.742Z,48.91
2022-11-20T05:23:56.881Z,48.72
2022-11-20T05:26:25.389Z,48.36
2022-11-20T05:28:54.060Z,48.24
2022-11-20T05:31:27.759Z,47.69
2022-11-20T05:33:58.243Z,48.02
2022-11-20T05:36:27.431Z,47.63
2022-11-20T05:39:01.060Z,47.60
2022-11-20T05:41:34.711Z,47.70
2022-11-20T05:44:02.994Z,47.27
2022-11-20T05:46:32.080Z,46.55
2022-11-20T05:49:00.320Z,46.62
2022-11-20T05:51:29.230Z,46.65
2022-11-20T05:53:59.313Z,46.31
2022-11-20T05:56:27.802Z,46.07
2022-11-20T05:58:56.040Z,46.18
2022-11-20T06:01:26.666Z,46.00
2022-11-20T06:03:56.445Z,46.43
2022-11-20T06:06:26.531Z,45.71
2022-11-20T06:08:55.851Z,46.09
2022-11-20T06:11:24.462Z,46.29
2022-11-20T06:13:52.689Z,45.85
2022-11-20T06:16:23.040Z,45.96
2022-11-20T06:18:51.213Z,45.95
2022-11-20T06:21:22.080Z,45.98
2022-11-20T06:23:51.363Z,46.44
2022-11-20T06:26:22.822Z,46.32
2022-11-20T06:28:52.310Z,46.49
2022-11-20T06:31:22.783Z,46.70
2022-11-20T06:33:51.894Z,46.76
2022-11-20T06:36:23.043Z,46.84
2022-11-20T06:38:52.055Z,46.92
2022-11-20T06:41:22.560Z,46.77
2022-11-20T06:43:51.603Z,46.88
2022-11-20T06:46:21.394Z,47.22
2022-11-20T06:48:50.722Z,46.94
2022-11-20T06:51:19.867Z,46.99
2022-11-20T06:53:49.254Z,47.29
2022-11-20T06:56:18.055Z,46.96
2022-11-20T06:58:46.534Z,47.65
2022-11-20T07:01:16.158Z,47.10
2022-11-20T07:03:45.774Z,47.45
2022-11-20T07:06:16.854Z,47.38
2022-11-20T07:08:45.113Z,47.09
2022-11-20T07:11:15.182Z,47.24
2022-11-20T07:13:43.673Z,47.17
2022-11-20T07:16:13.603Z,47.22
2022-11-20T07:18:45.938Z,47.06
2022-11-20T07:21:19.110Z,46.86
2022-11-20T07:23:47.994Z,47.00
2022-11-20T07:26:16.633Z,47.00
2022-11-20T07:28:46.411Z,47.33
2022-11-20T07:31:19.102Z,47.15
2022-11-20T07:33:48.247Z,47.20
2022-11-20T07:36:17.976Z,46.98
2022-11-20T07:38:46.277Z,47.46
2022-11-20T07:41:14.906Z,47.46
2022-11-20T07:43:43.258Z,47.23
2022-11-20T07:46:12.021Z,47.46
2022-11-20T07:48:40.811Z,47.34
2022-11-20T07:51:09.906Z,47.42
2022-11-20T07:53:38.444Z,47.20
2022-11-20T07:56:07.643Z,47.76
2022-11-20T07:58:35.945Z,47.09
2022-11-20T08:01:06.449Z,48.48
2022-11-20T08:03:35.458Z,48.20
2022-11-20T08:06:04.248Z,48.24
2022-11-20T08:08:34.068Z,48.34
2022-11-20T08:11:22.117Z,48.10
2022-11-20T08:14:09.275Z,48.10
2022-11-20T08:16:38.384Z,47.97
2022-11-20T08:19:14.563Z,47.92
2022-11-20T08:21:44.743Z,47.55
2022-11-20T08:24:13.243Z,47.30
2022-11-20T08:26:42.472Z,44.70
2022-11-20T08:29:11.084Z,46.80
2022-11-20T08:31:39.784Z,46.81
2022-11-20T08:34:28.123Z,46.85
2022-11-20T08:36:56.784Z,46.79
2022-11-20T08:39:25.223Z,46.78
2022-11-20T08:41:53.861Z,46.64
2022-11-20T08:44:22.263Z,46.39
2022-11-20T08:46:51.024Z,46.74
2022-11-20T08:49:20.593Z,46.77
2022-11-20T08:51:53.593Z,46.97
2022-11-20T08:54:23.193Z,47.00
2022-11-20T08:56:51.964Z,46.58
2022-11-20T08:59:43.978Z,46.61
2022-11-20T09:02:09.583Z,46.77
2022-11-20T09:04:37.983Z,46.32
2022-11-20T09:07:07.025Z,46.58
2022-11-20T09:09:35.544Z,46.86
2022-11-20T09:12:05.542Z,47.75
2022-11-20T09:14:35.184Z,47.67
2022-11-20T09:17:04.065Z,47.50
2022-11-20T09:19:36.495Z,47.47
2022-11-20T09:22:05.324Z,47.59
2022-11-20T09:24:33.677Z,47.01
2022-11-20T09:27:06.305Z,46.74
2022-11-20T09:29:34.647Z,47.20
2022-11-20T09:32:03.604Z,46.76
2022-11-20T09:34:31.926Z,47.17
2022-11-20T09:37:06.167Z,47.23
2022-11-20T09:39:40.288Z,47.74
2022-11-20T09:42:12.959Z,47.35
2022-11-20T09:44:41.355Z,47.17
2022-11-20T09:47:21.455Z,46.89
2022-11-20T09:49:55.473Z,47.07
2022-11-20T09:52:38.984Z,47.29
2022-11-20T09:55:10.713Z,47.42
2022-11-20T09:57:42.934Z,47.45
2022-11-20T10:00:14.065Z,47.44
2022-11-20T10:03:06.973Z,47.32
2022-11-20T10:05:52.813Z,47.64
2022-11-20T10:08:25.753Z,47.84
2022-11-20T10:11:07.163Z,47.54
2022-11-20T10:14:13.834Z,47.66
2022-11-20T10:17:09.953Z,47.56
2022-11-20T10:20:03.795Z,47.56
2022-11-20T10:22:41.625Z,47.73
2022-11-20T10:25:45.333Z,47.71
2022-11-20T10:28:59.992Z,47.45
2022-11-20T10:32:11.212Z,47.38
2022-11-20T10:34:48.479Z,47.65
2022-11-20T10:37:24.683Z,47.77
2022-11-20T10:40:18.751Z,47.66
2022-11-20T10:43:01.292Z,47.72
2022-11-20T10:45:48.111Z,47.74
2022-11-20T10:48:28.045Z,47.57
2022-11-20T10:51:09.439Z,47.75
2022-11-20T10:53:56.410Z,47.73
2022-11-20T10:56:33.695Z,47.52
2022-11-20T10:59:20.804Z,47.76
2022-11-20T11:01:49.371Z,47.64
2022-11-20T11:04:30.422Z,47.55
2022-11-20T11:07:21.853Z,47.79
2022-11-20T11:09:58.215Z,47.46
2022-11-20T11:12:29.662Z,47.20
2022-11-20T11:14:59.007Z,47.45
2022-11-20T11:17:33.908Z,47.34
2022-11-20T11:20:18.193Z,46.98
2022-11-20T11:22:52.081Z,47.14
2022-11-20T11:25:37.183Z,46.87
2022-11-20T11:28:26.280Z,46.47
2022-11-20T11:30:55.439Z,46.59
2022-11-20T11:33:26.462Z,46.63
2022-11-20T11:35:59.799Z,46.80
2022-11-20T11:38:36.090Z,46.65
2022-11-20T11:41:06.106Z,46.38
2022-11-20T11:43:54.970Z,46.22
2022-11-20T11:46:37.139Z,46.72
2022-11-20T11:49:05.221Z,46.94
2022-11-20T11:52:02.790Z,47.19
2022-11-20T11:54:44.968Z,47.18
2022-11-20T11:57:28.109Z,47.47
2022-11-20T12:00:12.044Z,47.70
2022-11-20T12:02:48.030Z,47.55
2022-11-20T12:05:25.277Z,47.92
2022-11-20T12:08:01.314Z,48.06
2022-11-20T12:10:41.521Z,47.93
2022-11-20T12:13:35.859Z,48.44
2022-11-20T12:16:05.634Z,48.33
2022-11-20T12:18:34.300Z,48.35
2022-11-20T12:21:21.642Z,48.21
2022-11-20T12:24:02.172Z,48.13
2022-11-20T12:26:50.629Z,48.09
2022-11-20T12:29:54.762Z,48.01
2022-11-20T12:32:48.272Z,48.38
2022-11-20T12:35:22.581Z,48.43
2022-11-20T12:38:03.861Z,48.15
2022-11-20T12:40:36.260Z,48.06
2022-11-20T12:43:41.974Z,48.53
2022-11-20T12:46:45.542Z,48.34
2022-11-20T12:49:19.219Z,48.18
2022-11-20T12:52:09.896Z,48.40
2022-11-20T12:54:56.783Z,48.35
2022-11-20T12:57:45.477Z,48.12
2022-11-20T13:00:17.533Z,48.05
2022-11-20T13:03:05.753Z,47.90
2022-11-20T13:06:21.162Z,47.96
2022-11-20T13:08:54.898Z,48.15
2022-11-20T13:11:40.982Z,48.04
2022-11-20T13:14:30.741Z,48.06
2022-11-20T13:17:07.695Z,47.68
2022-11-20T13:19:37.428Z,47.80
2022-11-20T13:22:05.611Z,47.72
2022-11-20T13:24:35.263Z,47.57
2022-11-20T13:27:06.815Z,47.85
2022-11-20T13:29:38.904Z,47.35
2022-11-20T13:32:17.275Z,47.02
2022-11-20T13:35:03.232Z,46.96
2022-11-20T13:37:35.629Z,46.68
2022-11-20T13:40:11.498Z,46.70
2022-11-20T13:43:12.444Z,46.67
2022-11-20T13:45:40.953Z,46.56
2022-11-20T13:48:23.921Z,46.56
2022-11-20T13:51:06.402Z,46.33
2022-11-20T13:53:55.964Z,46.43
2022-11-20T13:56:55.122Z,46.72
2022-11-20T13:59:41.733Z,46.70
2022-11-20T14:02:22.492Z,46.38
2022-11-20T14:04:53.620Z,46.24
2022-11-20T14:07:25.283Z,46.20
2022-11-20T14:09:56.556Z,46.29
2022-11-20T14:12:30.678Z,46.35
2022-11-20T14:14:59.584Z,46.41
2022-11-20T14:17:35.614Z,46.03
2022-11-20T14:20:13.243Z,46.04
2022-11-20T14:22:50.864Z,46.17
2022-11-20T14:25:18.988Z,45.99
2022-11-20T14:28:11.776Z,45.87
2022-11-20T14:30:49.455Z,45.70
2022-11-20T14:33:18.713Z,46.07
2022-11-20T14:35:53.181Z,46.01
2022-11-20T14:38:26.044Z,45.82
2022-11-20T14:40:54.255Z,45.18
2022-11-20T14:43:24.563Z,45.37
2022-11-20T14:46:05.016Z,45.54
2022-11-20T14:48:45.952Z,45.35
2022-11-20T14:51:39.433Z,45.19
2022-11-20T14:54:19.984Z,45.48
2022-11-20T14:57:05.191Z,45.84
2022-11-20T14:59:35.603Z,45.77
2022-11-20T15:02:10.878Z,45.91
2022-11-20T15:04:49.811Z,45.92
2022-11-20T15:07:33.458Z,45.83
2022-11-20T15:10:11.478Z,46.41
2022-11-20T15:12:50.702Z,46.49
2022-11-20T15:15:34.241Z,46.40
2022-11-20T15:18:03.364Z,46.23
2022-11-20T15:20:33.738Z,46.38
2022-11-20T15:23:02.016Z,46.61
2022-11-20T15:25:32.086Z,46.82
2022-11-20T15:28:00.227Z,46.75
2022-11-20T15:30:28.889Z,47.04
2022-11-20T15:32:57.025Z,47.06
2022-11-20T15:35:25.537Z,47.39
2022-11-20T15:37:53.648Z,47.35
2022-11-20T15:40:22.141Z,47.57
2022-11-20T15:43:09.926Z,48.07
2022-11-20T15:46:04.386Z,47.75
2022-11-20T15:48:47.913Z,47.40
2022-11-20T15:51:23.355Z,47.54
2022-11-20T15:53:51.465Z,47.28
2022-11-20T15:56:19.946Z,47.70
2022-11-20T15:58:48.104Z,48.06
2022-11-20T16:01:19.026Z,47.82
2022-11-20T16:03:47.425Z,47.76
2022-11-20T16:06:17.356Z,48.83
2022-11-20T16:08:45.578Z,48.97
2022-11-20T16:11:16.616Z,49.14
2022-11-20T16:14:04.065Z,48.95
2022-11-20T16:16:36.945Z,48.75
2022-11-20T16:19:05.427Z,48.27
2022-11-20T16:21:33.996Z,48.12
2022-11-20T16:24:04.297Z,47.64
2022-11-20T16:26:33.718Z,47.15
2022-11-20T16:29:03.997Z,46.90
2022-11-20T16:31:33.285Z,46.85
2022-11-20T16:34:10.020Z,47.03
2022-11-20T16:36:41.563Z,46.47
2022-11-20T16:39:09.776Z,46.24
2022-11-20T16:41:39.424Z,46.22
2022-11-20T16:44:10.525Z,46.57
2022-11-20T16:46:41.056Z,46.55
2022-11-20T16:49:14.488Z,46.95
2022-11-20T16:51:44.194Z,47.00
2022-11-20T16:54:20.871Z,47.30
2022-11-20T16:56:52.050Z,47.54
2022-11-20T16:59:20.515Z,47.80
2022-11-20T17:01:49.094Z,47.53
2022-11-20T17:04:17.912Z,47.85
2022-11-20T17:06:48.052Z,47.61
2022-11-20T17:09:16.242Z,48.08
2022-11-20T17:11:44.795Z,48.31
2022-11-20T17:14:13.003Z,48.02
2022-11-20T17:16:41.584Z,48.24
2022-11-20T17:19:09.914Z,48.02
2022-11-20T17:21:40.657Z,48.12
2022-11-20T17:24:12.640Z,48.01
2022-11-20T17:26:42.080Z,48.06
2022-11-20T17:29:15.487Z,48.05
2022-11-20T17:31:46.403Z,48.54
2022-11-20T17:34:15.864Z,48.78
2022-11-20T17:36:47.784Z,48.45
2022-11-20T17:39:16.905Z,48.42
2022-11-20T17:42:06.226Z,48.52
2022-11-20T17:44:34.766Z,49.00
2022-11-20T17:47:03.408Z,49.01
2022-11-20T17:49:31.505Z,48.72
2022-11-20T17:52:01.286Z,48.26
2022-11-20T17:54:29.526Z,48.00
2022-11-20T17:57:16.908Z,48.29
2022-11-20T17:59:45.676Z,48.15
2022-11-20T18:02:14.196Z,47.60
2022-11-20T18:04:42.585Z,47.55
2022-11-20T18:07:11.297Z,47.69
2022-11-20T18:09:39.501Z,47.19
2022-11-20T18:12:08.205Z,47.44
2022-11-20T18:14:36.741Z,47.32
2022-11-20T18:17:14.358Z,47.25
2022-11-20T18:20:01.058Z,47.75
2022-11-20T18:22:36.073Z,46.94
2022-11-20T18:25:04.759Z,47.26
2022-11-20T18:27:34.337Z,47.31
2022-11-20T18:30:02.567Z,47.98
2022-11-20T18:32:32.426Z,48.20
2022-11-20T18:35:02.049Z,48.17
2022-11-20T18:37:32.646Z,48.24
2022-11-20T18:40:00.770Z,48.37
2022-11-20T18:42:47.625Z,48.50
2022-11-20T18:45:15.685Z,48.36
2022-11-20T18:47:45.454Z,48.42
2022-11-20T18:50:13.642Z,48.63
2022-11-20T18:52:44.970Z,48.65
2022-11-20T18:55:13.364Z,48.63
2022-11-20T18:57:41.875Z,48.85
2022-11-20T19:00:10.598Z,48.86
2022-11-20T19:02:42.590Z,48.75
2022-11-20T19:05:12.839Z,49.15
2022-11-20T19:07:41.986Z,48.97
2022-11-20T19:10:10.569Z,48.84
2022-11-20T19:12:39.106Z,49.25
2022-11-20T19:15:07.739Z,49.03
2022-11-20T19:17:36.220Z,49.16
2022-11-20T19:20:04.625Z,49.04
2022-11-20T19:22:32.970Z,49.33
2022-11-20T19:25:01.056Z,49.30
2022-11-20T19:27:29.647Z,49.16
2022-11-20T19:30:03.559Z,49.58
2022-11-20T19:32:32.853Z,49.33
2022-11-20T19:35:01.171Z,49.29
2022-11-20T19:37:29.564Z,49.18
2022-11-20T19:39:59.984Z,49.08
2022-11-20T19:42:28.439Z,48.58
2022-11-20T19:44:58.380Z,48.46
2022-11-20T19:47:46.059Z,48.47
2022-11-20T19:50:16.274Z,48.52
2022-11-20T19:52:44.828Z,48.15
2022-11-20T19:55:12.886Z,48.30
2022-11-20T19:57:41.485Z,48.23
2022-11-20T20:00:10.556Z,47.78
2022-11-20T20:02:39.606Z,47.82
2022-11-20T20:05:08.307Z,47.77
2022-11-20T20:07:36.818Z,47.72
2022-11-20T20:10:05.455Z,47.49
2022-11-20T20:12:33.816Z,47.79
2022-11-20T20:15:01.899Z,47.51
2022-11-20T20:17:30.414Z,47.53
2022-11-20T20:19:58.605Z,47.88
2022-11-20T20:22:27.026Z,47.95
2022-11-20T20:24:55.139Z,47.96
2022-11-20T20:27:24.783Z,48.08
2022-11-20T20:29:55.155Z,48.14
2022-11-20T20:32:23.667Z,48.52
2022-11-20T20:34:51.807Z,48.46
2022-11-20T20:37:21.335Z,48.31
2022-11-20T20:39:50.418Z,48.57
2022-11-20T20:42:19.882Z,48.22
2022-11-20T20:45:06.678Z,48.34
2022-11-20T20:47:40.126Z,48.54
2022-11-20T20:50:10.783Z,48.45
2022-11-20T20:52:40.434Z,48.94
2022-11-20T20:55:10.664Z,48.72
2022-11-20T20:57:42.953Z,48.98
2022-11-20T21:00:11.559Z,48.92
2022-11-20T21:02:42.378Z,48.80
2022-11-20T21:05:12.818Z,49.23
2022-11-20T21:08:01.961Z,49.14
2022-11-20T21:10:36.521Z,48.96
2022-11-20T21:13:05.299Z,49.23
2022-11-20T21:15:33.397Z,48.59
2022-11-20T21:18:03.188Z,49.10
2022-11-20T21:20:49.958Z,48.96
2022-11-20T21:23:19.535Z,48.92
2022-11-20T21:25:48.267Z,48.76
2022-11-20T21:28:18.380Z,48.77
2022-11-20T21:30:47.558Z,48.84
2022-11-20T21:33:15.956Z,48.75
2022-11-20T21:35:44.583Z,48.71
2022-11-20T21:38:14.065Z,48.72
2022-11-20T21:40:42.226Z,48.64
2022-11-20T21:43:11.931Z,48.49
2022-11-20T21:45:40.607Z,48.47
2022-11-20T21:48:10.239Z,48.71
2022-11-20T21:50:38.476Z,48.60
2022-11-20T21:53:06.895Z,48.48
2022-11-20T21:55:36.325Z,48.31
2022-11-20T21:58:05.144Z,48.24
2022-11-20T22:00:33.215Z,48.40
2022-11-20T22:03:02.204Z,48.46
2022-11-20T22:05:30.326Z,48.27
2022-11-20T22:07:58.759Z,48.50
2022-11-20T22:10:28.076Z,48.50
2022-11-20T22:13:16.538Z,48.29
2022-11-20T22:16:00.391Z,48.27
2022-11-20T22:18:29.481Z,48.21
2022-11-20T22:20:58.160Z,48.47
2022-11-20T22:23:27.656Z,48.14
2022-11-20T22:25:55.825Z,48.21
2022-11-20T22:28:24.325Z,48.29
2022-11-20T22:30:52.446Z,48.24
2022-11-20T22:33:20.898Z,47.90
2022-11-20T22:35:49.623Z,47.89
2022-11-20T22:38:18.437Z,47.92
2022-11-20T22:40:48.797Z,47.94
2022-11-20T22:43:17.507Z,48.19
2022-11-20T22:45:46.747Z,48.22
2022-11-20T22:48:15.438Z,47.76
2022-11-20T22:50:44.028Z,47.82
2022-11-20T22:53:13.298Z,47.81
2022-11-20T22:55:41.924Z,47.45
2022-11-20T22:58:11.557Z,47.59
2022-11-20T23:00:39.947Z,47.71
2022-11-20T23:03:08.488Z,47.70
2022-11-20T23:05:37.068Z,47.75
2022-11-20T23:08:06.988Z,47.67
2022-11-20T23:10:35.161Z,47.73
2022-11-20T23:13:04.988Z,47.69
2022-11-20T23:15:34.867Z,48.00
2022-11-20T23:18:03.578Z,47.96
2022-11-20T23:20:31.951Z,47.82
2022-11-20T23:23:00.599Z,47.66
2022-11-20T23:25:28.867Z,48.02
2022-11-20T23:27:57.468Z,48.08
2022-11-20T23:30:25.788Z,47.82
2022-11-20T23:32:55.581Z,47.59
2022-11-20T23:35:24.779Z,47.89
2022-11-20T23:37:53.426Z,47.72
2022-11-20T23:40:21.749Z,47.72
2022-11-20T23:43:19.617Z,48.07
2022-11-20T23:45:51.268Z,47.77
2022-11-20T23:48:21.137Z,47.67
2022-11-20T23:50:50.178Z,47.98
2022-11-20T23:53:20.389Z,47.91
2022-11-20T23:55:50.789Z,47.87
2022-11-20T23:58:20.330Z,47.72
